Time;durP1;ratioP1;P1;durP2;ratioP2;P2;SDS_P1;SDS_P2;PMS_P1;PMS_P2;Temp;Humidity;BMP_temperature;BMP_pressure;BME280_temperature;BME280_humidity;BME280_pressure;Samples;Min_cycle;Max_cycle;Signal;HPM_P1;HPM_P2
2023/01/27 00:01:39;;;;;;;17.45;8.80;;;;;;;1.55;100.00;99410.91;5089787;28;20030;-29
2023/01/27 00:04:04;;;;;;;16.50;9.32;;;;;;;1.44;100.00;99408.66;5071677;28;20453;-30
2023/01/27 00:06:29;;;;;;;14.90;9.20;;;;;;;1.47;100.00;99405.69;5089509;28;20036;-29
2023/01/27 00:08:55;;;;;;;16.45;9.77;;;;;;;1.42;100.00;99376.50;5089709;28;20076;-30
2023/01/27 00:14:04;;;;;;;18.52;9.32;;;;;;;1.88;100.00;99368.53;5089905;28;20085;-29
2023/01/27 00:16:30;;;;;;;18.10;9.27;;;;;;;1.96;100.00;99384.25;5089917;28;20036;-28
2023/01/27 00:18:55;;;;;;;15.50;9.25;;;;;;;1.89;100.00;99383.31;5089433;28;20019;-29
2023/01/27 00:26:48;;;;;;;16.90;8.82;;;;;;;2.32;100.00;99375.63;5089660;28;20030;-28
2023/01/27 00:29:13;;;;;;;16.10;9.13;;;;;;;2.46;100.00;99384.50;5089358;28;20020;-31
2023/01/27 00:34:23;;;;;;;14.77;8.23;;;;;;;2.14;100.00;99357.56;5089300;28;20452;-27
2023/01/27 00:36:48;;;;;;;18.17;12.40;;;;;;;2.34;100.00;99355.19;5089458;28;20496;-28
2023/01/27 00:39:14;;;;;;;15.65;8.70;;;;;;;2.46;100.00;99352.13;5089243;28;20631;-29
2023/01/27 00:41:40;;;;;;;15.32;8.27;;;;;;;2.29;100.00;99330.44;5089460;28;20032;-28
2023/01/27 00:44:06;;;;;;;15.60;7.60;;;;;;;2.45;100.00;99345.22;5089203;28;20133;-29
2023/01/27 00:46:32;;;;;;;14.25;7.75;;;;;;;2.25;100.00;99339.69;5089546;28;20055;-27
2023/01/27 00:48:58;;;;;;;14.30;7.65;;;;;;;2.50;100.00;99358.66;5089379;28;20073;-30
2023/01/27 00:51:23;;;;;;;16.75;8.15;;;;;;;2.53;100.00;99364.34;5089115;28;20092;-29
2023/01/27 00:53:49;;;;;;;12.38;7.53;;;;;;;2.05;100.00;99352.59;5071099;28;20047;-29
2023/01/27 00:56:15;;;;;;;16.38;8.70;;;;;;;2.22;100.00;99362.72;5070934;28;20032;-29
2023/01/27 00:58:40;;;;;;;14.65;7.90;;;;;;;2.06;100.00;99330.53;5070407;28;20031;-31
2023/01/27 01:01:10;;;;;;;16.65;8.05;;;;;;;2.39;100.00;99347.59;5089046;28;20024;-33
2023/01/27 01:03:36;;;;;;;15.77;8.20;;;;;;;2.36;100.00;99344.50;5088945;28;20165;-30
2023/01/27 01:06:08;;;;;;;13.73;7.47;;;;;;;2.08;100.00;99328.53;5070724;28;20623;-30
2023/01/27 01:08:35;;;;;;;14.75;7.40;;;;;;;1.88;100.00;99302.81;5070728;28;20504;-34
2023/01/27 01:11:00;;;;;;;14.18;8.05;;;;;;;2.15;100.00;99303.16;5088735;28;20043;-30
2023/01/27 01:13:27;;;;;;;15.35;7.90;;;;;;;2.23;100.00;99310.97;5088710;28;20017;-31
2023/01/27 01:15:53;;;;;;;20.67;9.52;;;;;;;2.04;100.00;99286.00;5070799;28;20044;-29
2023/01/27 01:18:18;;;;;;;17.08;10.13;;;;;;;2.20;100.00;99290.25;5088808;28;20419;-33
2023/01/27 01:20:45;;;;;;;16.63;9.40;;;;;;;2.28;100.00;99287.53;5070138;28;20065;-28
2023/01/27 01:23:11;;;;;;;18.10;9.27;;;;;;;2.09;100.00;99272.34;5088987;28;20028;-29
2023/01/27 01:25:37;;;;;;;19.83;10.45;;;;;;;2.42;100.00;99281.41;5070105;28;20078;-30
2023/01/27 01:28:04;;;;;;;17.23;8.50;;;;;;;2.39;100.00;99294.97;5089089;28;20027;-28
2023/01/27 01:30:30;;;;;;;18.98;9.70;;;;;;;2.15;100.00;99317.13;5070914;28;20128;-28
2023/01/27 01:32:56;;;;;;;18.23;9.32;;;;;;;2.24;100.00;99306.50;5070645;28;20103;-32
2023/01/27 01:35:26;;;;;;;16.48;9.48;;;;;;;2.15;100.00;99288.19;5070256;28;20024;-31
2023/01/27 01:37:52;;;;;;;14.93;8.68;;;;;;;2.22;100.00;99319.84;5070194;28;20120;-29
2023/01/27 01:40:19;;;;;;;18.17;8.68;;;;;;;2.15;100.00;99329.47;5088541;28;20024;-29
2023/01/27 01:42:57;;;;;;;16.80;8.90;;;;;;;1.87;100.00;99347.69;5088722;28;20032;-28
2023/01/27 01:45:52;;;;;;;17.20;7.95;;;;;;;1.68;100.00;99318.28;5088526;28;20054;-28
2023/01/27 01:48:23;;;;;;;14.10;7.80;;;;;;;1.78;100.00;99325.91;5070326;28;20427;-30
2023/01/27 01:50:54;;;;;;;19.55;9.30;;;;;;;1.88;100.00;99318.59;5092406;28;20054;-28
2023/01/27 01:53:26;;;;;;;16.73;9.05;;;;;;;1.79;100.00;99302.06;5092212;28;20050;-29
2023/01/27 01:55:52;;;;;;;18.25;9.60;;;;;;;1.59;100.00;99293.91;5092539;28;20028;-29
2023/01/27 01:58:19;;;;;;;18.75;9.50;;;;;;;1.71;100.00;99286.38;5073791;28;20056;-29
2023/01/27 02:00:45;;;;;;;18.13;9.32;;;;;;;1.36;100.00;99266.88;5091897;28;20080;-30
2023/01/27 02:03:11;;;;;;;17.85;8.80;;;;;;;1.36;100.00;99261.59;5091585;28;20039;-28
2023/01/27 02:05:43;;;;;;;16.80;8.40;;;;;;;1.71;100.00;99264.53;5073722;28;20020;-29
2023/01/27 02:08:20;;;;;;;14.70;8.25;;;;;;;1.89;100.00;99267.63;5073779;28;20031;-29
2023/01/27 02:10:46;;;;;;;20.05;9.70;;;;;;;1.91;100.00;99268.25;5092013;28;20032;-30
2023/01/27 02:13:11;;;;;;;16.90;9.07;;;;;;;2.00;100.00;99280.31;5073524;28;20403;-29
2023/01/27 02:15:37;;;;;;;17.73;9.27;;;;;;;1.95;100.00;99269.50;5091319;28;20035;-29
2023/01/27 02:18:03;;;;;;;18.27;9.18;;;;;;;1.81;100.00;99272.97;5091946;28;20039;-30
2023/01/27 02:20:46;;;;;;;17.77;9.18;;;;;;;1.92;100.00;99283.03;5091664;28;20024;-29
2023/01/27 02:23:17;;;;;;;20.48;10.23;;;;;;;1.80;100.00;99269.53;5091612;28;20031;-27
2023/01/27 02:25:57;;;;;;;19.23;10.27;;;;;;;1.83;100.00;99263.09;5073337;28;20086;-30
2023/01/27 02:28:26;;;;;;;18.75;9.02;;;;;;;1.65;100.00;99233.72;5091533;28;20039;-28
2023/01/27 02:30:52;;;;;;;16.13;9.05;;;;;;;1.75;100.00;99244.78;5091697;28;20032;-28
2023/01/27 02:33:17;;;;;;;17.90;9.07;;;;;;;1.96;100.00;99236.97;5091072;28;20061;-27
2023/01/27 02:35:58;;;;;;;17.13;8.52;;;;;;;2.07;100.00;99227.00;5073184;28;20124;-29
2023/01/27 02:38:26;;;;;;;15.48;9.18;;;;;;;2.13;100.00;99231.50;5072748;28;20059;-28
2023/01/27 02:40:56;;;;;;;15.75;8.95;;;;;;;2.04;100.00;99243.13;5073385;28;20051;-31
2023/01/27 02:43:22;;;;;;;15.35;8.27;;;;;;;1.89;100.00;99230.81;5090717;28;20251;-29
2023/01/27 02:45:47;;;;;;;16.83;9.20;;;;;;;2.05;100.00;99231.63;5091107;28;20438;-28
2023/01/27 02:48:13;;;;;;;17.80;9.25;;;;;;;2.00;100.00;99234.78;5091043;28;20020;-30
2023/01/27 02:50:39;;;;;;;17.95;9.20;;;;;;;2.14;100.00;99262.06;5072819;28;20073;-29
2023/01/27 02:53:04;;;;;;;15.82;8.80;;;;;;;2.26;100.00;99263.22;5072531;28;20028;-30
2023/01/27 02:55:30;;;;;;;15.30;8.88;;;;;;;2.33;100.00;99256.22;5072678;28;20044;-27
2023/01/27 02:57:55;;;;;;;14.60;7.80;;;;;;;2.16;100.00;99237.19;5072807;28;20197;-29
2023/01/27 03:00:21;;;;;;;15.48;8.65;;;;;;;2.25;100.00;99242.34;5090829;28;20032;-28
2023/01/27 03:02:46;;;;;;;19.05;10.00;;;;;;;2.07;100.00;99222.53;5091153;28;20038;-33
2023/01/27 03:05:14;;;;;;;22.00;11.75;;;;;;;2.20;100.00;99216.59;5072548;28;20609;-28
2023/01/27 03:07:39;;;;;;;16.33;8.55;;;;;;;2.49;100.00;99234.09;5072194;28;20125;-29
2023/01/27 03:10:05;;;;;;;16.13;8.35;;;;;;;2.44;100.00;99248.84;5090923;28;20070;-28
2023/01/27 03:12:30;;;;;;;14.98;8.05;;;;;;;2.53;100.00;99251.16;5090732;28;20133;-28
2023/01/27 03:20:24;;;;;;;18.85;8.98;;;;;;;2.51;100.00;99233.94;5090754;28;21005;-31
2023/01/27 03:22:49;;;;;;;15.20;8.57;;;;;;;2.60;100.00;99243.34;5072504;28;20476;-30
2023/01/27 03:25:15;;;;;;;17.58;9.07;;;;;;;2.52;100.00;99227.69;5090226;28;20053;-29
2023/01/27 03:27:40;;;;;;;14.35;8.02;;;;;;;2.60;100.00;99217.03;5090383;28;20028;-29
2023/01/27 03:30:08;;;;;;;16.65;7.75;;;;;;;2.59;100.00;99218.03;5090406;28;20736;-28
2023/01/27 03:32:34;;;;;;;12.80;7.07;;;;;;;2.78;100.00;99243.72;5089953;28;20020;-28
2023/01/27 03:35:00;;;;;;;13.32;7.32;;;;;;;2.73;100.00;99217.13;5090356;28;20040;-28
2023/01/27 03:48:35;;;;;;;12.75;7.47;;;;;;;2.77;100.00;99252.63;5090365;28;20039;-28
2023/01/27 03:51:02;;;;;;;15.85;8.27;;;;;;;2.76;100.00;99247.56;5071696;28;20122;-28
2023/01/27 03:53:27;;;;;;;14.95;7.68;;;;;;;2.65;100.00;99235.69;5089503;28;20035;-30
2023/01/27 03:55:53;;;;;;;14.98;7.65;;;;;;;2.64;100.00;99247.25;5090251;28;20028;-29
2023/01/27 03:58:21;;;;;;;14.85;8.05;;;;;;;2.57;100.00;99238.44;5089885;28;20028;-28
2023/01/27 04:00:59;;;;;;;17.70;8.70;;;;;;;2.41;100.00;99215.81;5089723;28;20024;-31
2023/01/27 04:09:02;;;;;;;16.55;8.23;;;;;;;2.33;100.00;99206.25;5089436;28;20058;-27
2023/01/27 04:14:12;;;;;;;17.80;8.25;;;;;;;2.72;100.00;99225.25;5089465;28;20035;-28
2023/01/27 04:16:38;;;;;;;16.35;8.93;;;;;;;2.72;100.00;99225.25;5089712;28;20028;-28
2023/01/27 04:19:06;;;;;;;18.13;9.52;;;;;;;2.65;100.00;99213.81;5071313;28;20101;-28
2023/01/27 04:21:32;;;;;;;16.38;8.25;;;;;;;2.71;100.00;99198.09;5071066;28;20016;-27
2023/01/27 04:23:57;;;;;;;20.65;9.57;;;;;;;2.85;100.00;99192.94;5071426;28;20028;-28
2023/01/27 04:26:23;;;;;;;18.90;8.85;;;;;;;2.71;100.00;99179.66;5071157;28;20087;-28
2023/01/27 04:28:49;;;;;;;16.48;8.60;;;;;;;2.70;100.00;99175.41;5071155;28;20040;-28
2023/01/27 04:31:15;;;;;;;15.93;8.38;;;;;;;2.54;100.00;99154.63;5089147;28;20486;-28
2023/01/27 04:33:42;;;;;;;19.20;9.18;;;;;;;2.68;100.00;99172.16;5071251;28;20139;-30
2023/01/27 04:36:08;;;;;;;19.70;9.50;;;;;;;2.91;100.00;99173.75;5089094;28;20060;-28
2023/01/27 04:38:33;;;;;;;17.02;9.43;;;;;;;2.81;100.00;99156.44;5089596;28;20043;-30
2023/01/27 04:40:59;;;;;;;16.50;9.13;;;;;;;2.94;100.00;99189.16;5089139;28;20024;-30
2023/01/27 04:43:25;;;;;;;16.70;9.20;;;;;;;2.84;100.00;99175.50;5088923;28;20020;-28
2023/01/27 04:45:50;;;;;;;17.48;9.70;;;;;;;2.83;100.00;99184.41;5071045;28;20084;-27
2023/01/27 04:48:16;;;;;;;21.15;12.45;;;;;;;2.70;100.00;99170.16;5089127;28;20031;-30
2023/01/27 04:50:41;;;;;;;23.77;15.73;;;;;;;2.64;100.00;99172.72;5089173;28;20111;-28
2023/01/27 04:53:06;;;;;;;22.35;13.30;;;;;;;2.40;100.00;99149.22;5089133;28;20028;-31
2023/01/27 04:55:32;;;;;;;21.60;10.95;;;;;;;2.36;100.00;99158.50;5070657;28;20024;-28
2023/01/27 04:57:57;;;;;;;20.33;10.75;;;;;;;2.36;100.00;99182.16;5089271;28;20539;-28
2023/01/27 05:00:23;;;;;;;19.70;11.27;;;;;;;2.28;100.00;99192.81;5089207;28;20484;-29
2023/01/27 05:02:48;;;;;;;24.60;11.93;;;;;;;2.25;100.00;99190.56;5089100;28;20028;-29
2023/01/27 05:05:14;;;;;;;20.45;10.40;;;;;;;2.39;100.00;99194.97;5089075;28;20028;-30
2023/01/27 05:07:39;;;;;;;21.35;10.52;;;;;;;2.27;100.00;99185.94;5070682;28;20024;-30
2023/01/27 05:10:06;;;;;;;25.50;14.30;;;;;;;2.41;100.00;99208.75;5088955;28;20039;-29
2023/01/27 05:12:32;;;;;;;22.77;12.93;;;;;;;2.60;100.00;99214.41;5089070;28;20020;-29
2023/01/27 05:14:58;;;;;;;22.17;11.80;;;;;;;2.44;100.00;99219.91;5070491;28;20039;-29
2023/01/27 05:17:23;;;;;;;23.70;11.95;;;;;;;2.51;100.00;99223.41;5088417;28;20511;-28
2023/01/27 05:19:49;;;;;;;23.30;11.95;;;;;;;2.51;100.00;99215.50;5088667;28;20111;-27
2023/01/27 05:22:14;;;;;;;21.42;10.82;;;;;;;2.66;100.00;99211.00;5091820;28;20028;-28
2023/01/27 05:24:40;;;;;;;23.67;11.85;;;;;;;2.54;100.00;99205.44;5092994;28;20104;-28
2023/01/27 05:27:06;;;;;;;23.38;11.38;;;;;;;2.48;100.00;99186.94;5092491;28;20502;-29
2023/01/27 05:29:31;;;;;;;19.75;11.60;;;;;;;2.69;100.00;99220.34;5073656;28;20492;-31
2023/01/27 05:31:56;;;;;;;20.35;10.98;;;;;;;2.58;100.00;99197.97;5092515;28;20500;-29
2023/01/27 05:34:22;;;;;;;23.05;11.55;;;;;;;2.62;100.00;99228.19;5092542;28;20032;-30
2023/01/27 05:36:48;;;;;;;22.05;10.52;;;;;;;2.20;100.00;99208.72;5074007;28;20227;-29
2023/01/27 05:39:13;;;;;;;23.58;12.55;;;;;;;2.26;100.00;99222.94;5092151;28;20068;-30
2023/01/27 05:41:39;;;;;;;26.38;12.02;;;;;;;2.22;100.00;99201.44;5092238;28;20031;-29
2023/01/27 05:44:05;;;;;;;28.02;13.60;;;;;;;2.35;100.00;99235.81;5092266;28;20077;-29
2023/01/27 05:46:32;;;;;;;27.33;12.95;;;;;;;2.22;100.00;99220.66;5092319;28;20028;-28
2023/01/27 05:49:05;;;;;;;27.85;14.30;;;;;;;2.26;100.00;99215.88;5092322;28;20028;-29
2023/01/27 05:51:39;;;;;;;40.38;14.48;;;;;;;2.32;100.00;99199.34;5092019;28;20509;-31
2023/01/27 05:54:05;;;;;;;112.32;38.60;;;;;;;2.58;100.00;99200.63;5092353;28;20024;-28
2023/01/27 05:56:32;;;;;;;74.20;29.98;;;;;;;2.57;100.00;99201.59;5092192;28;20038;-29
2023/01/27 05:58:57;;;;;;;72.68;32.10;;;;;;;2.65;100.00;99198.03;5092328;28;20051;-29
2023/01/27 06:01:34;;;;;;;51.47;23.75;;;;;;;2.79;100.00;99195.31;5091908;28;20449;-31
2023/01/27 06:04:00;;;;;;;43.60;20.60;;;;;;;2.85;100.00;99203.47;5092235;28;20028;-30
2023/01/27 06:06:28;;;;;;;26.90;13.85;;;;;;;2.80;100.00;99204.06;5073703;28;20028;-31
2023/01/27 06:08:53;;;;;;;30.98;15.15;;;;;;;2.60;100.00;99198.59;5073647;28;20052;-27
2023/01/27 06:11:20;;;;;;;33.15;15.10;;;;;;;2.47;100.00;99201.09;5091980;28;20068;-29
2023/01/27 06:13:46;;;;;;;43.55;17.10;;;;;;;2.60;100.00;99227.56;5092000;28;20024;-30
2023/01/27 06:16:16;;;;;;;28.52;13.52;;;;;;;2.69;100.00;99234.31;5073780;28;20067;-28
2023/01/27 06:18:42;;;;;;;29.20;13.02;;;;;;;2.16;100.00;99233.75;5091952;28;20035;-28
2023/01/27 06:21:09;;;;;;;23.63;12.50;;;;;;;2.25;100.00;99235.28;5091988;28;20032;-28
2023/01/27 06:23:35;;;;;;;25.13;13.15;;;;;;;2.42;100.00;99251.66;5073055;28;20469;-29
2023/01/27 06:26:03;;;;;;;22.42;12.18;;;;;;;2.39;100.00;99226.53;5091939;28;20031;-28
2023/01/27 06:28:29;;;;;;;27.55;15.85;;;;;;;2.48;100.00;99244.84;5073498;28;20491;-29
2023/01/27 06:30:55;;;;;;;33.67;15.70;;;;;;;2.33;100.00;99226.44;5091592;28;20035;-32
2023/01/27 06:33:21;;;;;;;23.77;13.20;;;;;;;2.17;100.00;99252.00;5091065;28;20028;-28
2023/01/27 06:35:46;;;;;;;23.90;12.35;;;;;;;2.42;100.00;99238.50;5091773;28;20134;-31
2023/01/27 06:38:14;;;;;;;35.88;15.82;;;;;;;2.27;100.00;99217.50;5072504;28;20125;-28
2023/01/27 06:40:40;;;;;;;36.33;19.58;;;;;;;2.40;100.00;99246.59;5091585;28;20493;-28
2023/01/27 06:43:11;;;;;;;49.40;25.65;;;;;;;2.34;100.00;99239.44;5091513;28;20035;-29
2023/01/27 06:45:37;;;;;;;53.17;27.00;;;;;;;2.15;100.00;99211.09;5090904;28;20035;-29
2023/01/27 06:48:02;;;;;;;33.83;18.92;;;;;;;2.20;100.00;99221.88;5091298;28;20416;-28
2023/01/27 06:50:28;;;;;;;34.53;19.77;;;;;;;2.44;100.00;99233.06;5072366;28;20535;-30
2023/01/27 06:53:02;;;;;;;30.15;18.13;;;;;;;2.52;100.00;99235.56;5090936;28;20059;-28
2023/01/27 06:55:28;;;;;;;36.03;18.33;;;;;;;2.48;100.00;99206.19;5072564;28;20495;-31
2023/01/27 06:57:54;;;;;;;34.50;17.65;;;;;;;2.49;100.00;99215.69;5087951;28;20032;-29
2023/01/27 07:00:20;;;;;;;34.65;15.82;;;;;;;2.55;100.00;99225.47;5090777;28;20022;-28
2023/01/27 07:02:45;;;;;;;31.88;17.60;;;;;;;2.79;100.00;99228.75;5072231;28;20054;-29
2023/01/27 07:05:12;;;;;;;33.58;18.02;;;;;;;2.40;100.00;99207.09;5072132;28;20088;-33
2023/01/27 07:07:37;;;;;;;32.45;17.80;;;;;;;2.54;100.00;99202.00;5090061;28;20117;-29
2023/01/27 07:10:04;;;;;;;32.15;17.52;;;;;;;2.84;100.00;99220.25;5090584;28;20047;-31
2023/01/27 07:12:30;;;;;;;31.38;17.60;;;;;;;2.78;100.00;99206.88;5072265;28;20030;-30
2023/01/27 07:14:55;;;;;;;38.80;20.48;;;;;;;2.80;100.00;99239.09;5090354;28;20024;-29
2023/01/27 07:17:21;;;;;;;30.13;16.83;;;;;;;2.89;100.00;99226.59;5090093;28;20398;-29
2023/01/27 07:19:46;;;;;;;28.73;15.63;;;;;;;2.78;100.00;99220.03;5090001;28;20023;-33
2023/01/27 07:22:12;;;;;;;26.35;14.88;;;;;;;2.96;100.00;99238.03;5066577;28;20395;-29
2023/01/27 07:24:37;;;;;;;28.75;15.32;;;;;;;2.72;100.00;99209.44;5090236;28;20040;-29
2023/01/27 07:27:03;;;;;;;28.83;15.30;;;;;;;2.86;100.00;99223.53;5063700;28;20033;-29
2023/01/27 07:29:28;;;;;;;30.60;15.38;;;;;;;2.91;100.00;99229.06;5071360;28;20024;-29
2023/01/27 07:31:54;;;;;;;29.10;15.82;;;;;;;2.84;100.00;99207.09;5090055;28;20022;-31
2023/01/27 07:34:19;;;;;;;28.17;15.32;;;;;;;3.02;100.00;99236.44;5089697;28;20024;-29
2023/01/27 07:36:45;;;;;;;32.35;17.60;;;;;;;2.73;100.00;99188.19;5090038;28;20051;-29
2023/01/27 07:39:10;;;;;;;37.97;20.55;;;;;;;2.97;100.00;99223.03;5090014;28;20059;-30
2023/01/27 07:41:36;;;;;;;31.02;17.33;;;;;;;2.80;100.00;99212.75;5089586;28;20471;-30
2023/01/27 07:44:01;;;;;;;39.40;20.98;;;;;;;2.69;100.00;99221.16;5089278;28;20407;-29
2023/01/27 07:46:27;;;;;;;36.22;20.25;;;;;;;2.97;100.00;99223.84;5071797;28;20042;-32
2023/01/27 07:48:52;;;;;;;31.95;17.88;;;;;;;3.07;100.00;99223.50;5090056;28;20031;-28
2023/01/27 07:51:17;;;;;;;32.10;17.98;;;;;;;2.93;100.00;99217.31;5090385;28;20028;-30
2023/01/27 07:53:43;;;;;;;36.05;17.52;;;;;;;3.10;100.00;99219.69;5071952;28;20028;-32
2023/01/27 07:56:11;;;;;;;34.85;19.00;;;;;;;3.17;100.00;99208.19;5071778;28;20050;-30
2023/01/27 07:58:38;;;;;;;34.75;18.75;;;;;;;3.06;100.00;99219.25;5090086;28;20106;-29
2023/01/27 08:01:05;;;;;;;35.78;18.25;;;;;;;3.16;100.00;99208.38;5070682;28;20127;-29
2023/01/27 08:03:30;;;;;;;31.05;16.42;;;;;;;3.19;100.00;99222.00;5069681;28;20085;-33
2023/01/27 08:05:56;;;;;;;28.67;16.45;;;;;;;3.14;100.00;99208.56;5071442;28;20036;-28
2023/01/27 08:08:21;;;;;;;36.13;19.75;;;;;;;3.12;100.00;99207.13;5089675;28;20032;-28
2023/01/27 08:10:48;;;;;;;32.75;17.88;;;;;;;3.31;100.00;99208.25;5089909;28;20028;-31
2023/01/27 08:13:15;;;;;;;32.15;17.92;;;;;;;3.34;100.00;99200.00;5083269;28;20043;-35
2023/01/27 08:15:40;;;;;;;32.90;17.17;;;;;;;3.13;100.00;99196.41;5069109;28;20423;-30
2023/01/27 08:18:06;;;;;;;30.65;16.42;;;;;;;3.18;100.00;99185.28;5076288;28;20044;-29
2023/01/27 08:20:31;;;;;;;32.63;17.33;;;;;;;2.96;100.00;99179.25;5078621;28;20029;-31
2023/01/27 08:22:56;;;;;;;27.88;16.08;;;;;;;3.10;100.00;99178.34;5068094;28;20085;-29
2023/01/27 08:25:22;;;;;;;32.85;16.73;;;;;;;3.15;100.00;99168.06;5050934;28;20120;-31
2023/01/27 08:27:53;;;;;;;39.67;20.92;;;;;;;3.27;100.00;99178.03;5070617;28;20054;-30
2023/01/27 08:30:19;;;;;;;32.28;17.42;;;;;;;3.37;100.00;99181.97;5078610;28;20024;-32
2023/01/27 08:32:44;;;;;;;32.53;18.02;;;;;;;3.28;100.00;99191.03;5067639;28;20132;-29
2023/01/27 08:35:10;;;;;;;39.05;21.15;;;;;;;3.16;100.00;99179.41;5069294;28;20107;-29
2023/01/27 08:37:36;;;;;;;30.15;18.42;;;;;;;3.20;100.00;99165.63;5080816;28;20083;-31
2023/01/27 08:40:02;;;;;;;32.80;18.67;;;;;;;3.15;100.00;99168.06;5070863;28;20035;-29
2023/01/27 08:42:27;;;;;;;37.35;20.70;;;;;;;3.19;100.00;99164.03;5070908;28;20028;-30
2023/01/27 08:44:53;;;;;;;36.72;21.63;;;;;;;3.18;100.00;99162.38;5082567;28;20024;-32
2023/01/27 08:47:18;;;;;;;30.92;19.77;;;;;;;3.26;100.00;99184.31;5076236;28;20051;-29
2023/01/27 08:49:44;;;;;;;27.88;16.52;;;;;;;3.00;100.00;99180.50;5068975;28;20032;-29
2023/01/27 08:52:10;;;;;;;34.97;18.55;;;;;;;3.14;100.00;99187.47;5068397;28;20104;-29
2023/01/27 08:54:35;;;;;;;24.65;15.23;;;;;;;3.35;100.00;99188.44;5068149;28;20099;-28
2023/01/27 08:57:01;;;;;;;28.48;15.57;;;;;;;3.18;100.00;99167.66;5072767;28;20111;-30
2023/01/27 08:59:26;;;;;;;31.73;17.70;;;;;;;3.32;100.00;99188.81;5072473;28;20543;-29
2023/01/27 09:01:51;;;;;;;32.78;18.75;;;;;;;3.17;100.00;99187.13;5072712;28;20115;-28
2023/01/27 09:04:17;;;;;;;29.67;17.50;;;;;;;2.99;100.00;99158.63;5073219;28;20457;-29
2023/01/27 09:06:44;;;;;;;30.67;17.52;;;;;;;2.90;100.00;99138.72;5071609;28;20094;-29
2023/01/27 09:09:09;;;;;;;35.28;19.63;;;;;;;3.13;100.00;99162.16;5072912;28;20033;-28
2023/01/27 09:11:37;;;;;;;87.95;37.20;;;;;;;3.31;100.00;99176.66;5071084;28;20024;-33
2023/01/27 09:14:03;;;;;;;27.85;17.40;;;;;;;3.09;100.00;99166.19;5054534;28;20050;-31
2023/01/27 09:16:29;;;;;;;32.45;18.63;;;;;;;3.30;100.00;99149.47;5072380;28;20083;-30
2023/01/27 09:18:54;;;;;;;31.45;18.63;;;;;;;3.44;100.00;99171.47;5072497;28;20488;-27
2023/01/27 09:21:20;;;;;;;31.48;18.23;;;;;;;3.52;100.00;99167.88;5072387;28;20055;-28
2023/01/27 09:23:48;;;;;;;34.63;19.30;;;;;;;3.43;100.00;99164.56;5070903;28;20029;-29
2023/01/27 09:26:14;;;;;;;36.65;21.27;;;;;;;3.52;100.00;99166.03;5054378;28;20042;-29
2023/01/27 09:28:39;;;;;;;30.23;18.38;;;;;;;3.37;100.00;99150.34;5054089;28;20032;-29
2023/01/27 09:31:04;;;;;;;33.10;19.52;;;;;;;3.22;100.00;99144.38;5054237;28;20024;-28
2023/01/27 09:33:30;;;;;;;36.17;22.83;;;;;;;3.31;100.00;99150.28;5072135;28;20054;-28
2023/01/27 09:36:00;;;;;;;26.15;16.67;;;;;;;3.25;100.00;99148.44;5054046;28;20037;-32
2023/01/27 09:38:31;;;;;;;28.58;16.83;;;;;;;3.32;100.00;99141.41;5054269;28;20458;-28
2023/01/27 09:41:24;;;;;;;26.02;15.98;;;;;;;3.39;100.00;99142.22;5071986;28;20461;-29
2023/01/27 09:44:11;;;;;;;26.17;15.23;;;;;;;3.44;100.00;99144.31;5072194;28;20044;-28
2023/01/27 09:47:04;;;;;;;32.75;17.58;;;;;;;3.46;100.00;99115.94;5072280;28;20043;-29
2023/01/27 09:49:47;;;;;;;29.02;16.88;;;;;;;3.79;100.00;99123.97;5071546;28;20063;-28
2023/01/27 09:52:19;;;;;;;32.65;18.55;;;;;;;3.61;100.00;99119.22;5054139;28;20055;-29
2023/01/27 09:54:57;;;;;;;27.85;17.10;;;;;;;3.58;100.00;99133.63;5071934;28;20492;-28
2023/01/27 09:57:46;;;;;;;37.67;20.13;;;;;;;3.51;100.00;99124.84;5071542;28;20534;-33
2023/01/27 10:00:30;;;;;;;34.30;19.85;;;;;;;3.83;100.00;99125.19;5033347;28;20036;-29
2023/01/27 10:03:34;;;;;;;32.55;19.52;;;;;;;3.61;100.00;99140.31;5070518;28;20094;-28
2023/01/27 10:06:08;;;;;;;41.10;22.38;;;;;;;3.72;100.00;99144.19;5040052;28;20119;-27
2023/01/27 10:08:37;;;;;;;28.65;16.02;;;;;;;4.02;100.00;99139.44;5070896;28;20477;-29
2023/01/27 10:11:02;;;;;;;;;;;;;;;3.86;100.00;99126.59;5071852;28;20821;-28
2023/01/27 10:13:42;;;;;;;33.25;18.15;;;;;;;3.79;100.00;99131.88;5071557;28;20002;-29
2023/01/27 10:16:34;;;;;;;31.38;19.13;;;;;;;3.65;100.00;99132.81;5069801;28;20063;-29
2023/01/27 10:19:21;;;;;;;35.45;21.63;;;;;;;3.47;100.00;99093.81;5070942;28;20043;-28
2023/01/27 10:22:11;;;;;;;30.77;18.38;;;;;;;3.97;100.00;99121.56;5071406;28;20475;-28
2023/01/27 10:24:42;;;;;;;27.67;16.88;;;;;;;4.00;100.00;99102.72;5071109;28;20136;-29
2023/01/27 10:27:20;;;;;;;29.10;17.13;;;;;;;3.86;100.00;99093.13;5071042;28;20028;-29
2023/01/27 10:30:00;;;;;;;29.83;17.17;;;;;;;4.03;100.00;99101.50;5070974;28;20020;-31
2023/01/27 10:32:29;;;;;;;32.38;18.17;;;;;;;4.22;100.00;99110.47;5069973;28;20079;-28
2023/01/27 10:35:18;;;;;;;32.70;19.90;;;;;;;4.26;100.00;99097.69;5071140;28;20031;-28
2023/01/27 10:37:52;;;;;;;28.50;17.55;;;;;;;3.98;100.00;99093.38;5070559;28;20064;-29
2023/01/27 10:40:30;;;;;;;31.15;19.13;;;;;;;4.22;100.00;99076.16;5071031;28;20696;-28
2023/01/27 10:43:15;;;;;;;29.65;19.02;;;;;;;4.21;100.00;99082.47;5070977;28;20064;-29
2023/01/27 10:45:57;;;;;;;30.25;18.05;;;;;;;3.92;100.00;99051.97;5070851;28;20574;-28
2023/01/27 10:48:40;;;;;;;30.83;18.05;;;;;;;3.97;100.00;99068.81;5070833;28;20036;-28
2023/01/27 10:51:14;;;;;;;28.33;17.65;;;;;;;3.95;100.00;99036.56;5070889;28;20036;-28
2023/01/27 10:53:58;;;;;;;30.58;18.65;;;;;;;4.17;100.00;99071.50;5070524;28;20104;-29
2023/01/27 10:56:41;;;;;;;40.65;23.17;;;;;;;4.08;100.00;99063.97;5052373;28;20416;-28
2023/01/27 10:59:29;;;;;;;34.95;20.67;;;;;;;4.21;100.00;99034.97;5052981;28;20464;-31
2023/01/27 11:02:23;;;;;;;34.53;19.13;;;;;;;4.26;100.00;99064.19;5070418;28;20028;-32
2023/01/27 11:04:56;;;;;;;34.38;19.95;;;;;;;4.25;100.00;99045.91;5089969;28;20085;-30
2023/01/27 11:07:22;;;;;;;31.27;19.60;;;;;;;4.23;100.00;99054.03;5072082;28;20793;-29
2023/01/27 11:10:04;;;;;;;68.82;35.97;;;;;;;4.43;100.00;99044.28;5090437;28;20036;-29
2023/01/27 11:12:32;;;;;;;67.50;31.33;;;;;;;4.55;100.00;99025.19;5072094;28;20039;-29
2023/01/27 11:14:59;;;;;;;49.47;29.30;;;;;;;4.47;100.00;99022.75;5090458;28;20028;-30
2023/01/27 11:17:37;;;;;;;34.22;20.10;;;;;;;4.45;100.00;99051.19;5071319;28;20361;-30
2023/01/27 11:20:06;;;;;;;42.25;24.35;;;;;;;4.52;100.00;99041.44;5089490;28;20035;-30
2023/01/27 11:23:10;;;;;;;37.67;25.98;;;;;;;4.55;100.00;99046.31;5090103;28;20028;-31
2023/01/27 11:25:49;;;;;;;32.60;18.45;;;;;;;4.43;100.00;99046.94;5086860;28;20174;-28
2023/01/27 11:28:46;;;;;;;33.85;19.35;;;;;;;4.32;100.00;99047.53;5071621;28;20081;-37
2023/01/27 11:31:28;;;;;;;32.55;18.90;;;;;;;4.45;100.00;99022.94;5056657;28;20499;-28
2023/01/27 11:33:59;;;;;;;35.38;19.63;;;;;;;4.71;100.00;99043.22;5071366;28;20074;-35
2023/01/27 11:36:25;;;;;;;49.80;25.45;;;;;;;4.74;100.00;99029.63;5089858;28;20059;-30
2023/01/27 11:38:52;;;;;;;35.83;22.10;;;;;;;4.72;100.00;99021.09;5089500;28;20036;-28
2023/01/27 11:41:18;;;;;;;48.55;25.77;;;;;;;4.94;100.00;99026.13;5071399;28;20461;-28
2023/01/27 11:43:43;;;;;;;33.28;18.80;;;;;;;5.01;100.00;99027.72;5089568;28;20498;-29
2023/01/27 11:46:16;;;;;;;32.53;19.55;;;;;;;5.06;100.00;99013.88;5089736;28;20024;-28
2023/01/27 11:48:46;;;;;;;29.77;18.52;;;;;;;4.90;100.00;99038.13;5071277;28;20051;-31
2023/01/27 11:51:23;;;;;;;39.53;21.70;;;;;;;6.83;100.00;99031.66;5071455;28;20028;-29
2023/01/27 11:54:17;;;;;;;33.50;18.92;;;;;;;8.51;100.00;99034.50;5071308;28;20028;-29
2023/01/27 11:56:46;;;;;;;29.52;18.55;;;;;;;7.39;100.00;99037.75;5071244;28;20035;-30
2023/01/27 11:59:38;;;;;;;32.83;18.55;;;;;;;6.88;100.00;99044.25;5089532;28;20114;-29
2023/01/27 12:02:07;;;;;;;30.88;17.90;;;;;;;8.54;100.00;99041.19;5089149;28;20036;-29
2023/01/27 12:04:50;;;;;;;;;;;;;;;10.47;98.47;99039.88;5089884;28;20554;-28